Time;durP1;ratioP1;P1;durP2;ratioP2;P2;SDS_P1;SDS_P2;PMS_P1;PMS_P2;Temp;Humidity;BMP_temperature;BMP_pressure;BME280_temperature;BME280_humidity;BME280_pressure;Samples;Min_cycle;Max_cycle;Signal;HPM_P1;HPM_P2
2024/03/23 00:00:42;;;;;;;36.80;13.50;;;;;;;3.63;76.10;98984.72;5092266;28;20024;-79
2024/03/23 00:03:09;;;;;;;37.17;11.65;;;;;;;3.76;75.74;98989.88;5078929;28;20045;-80
2024/03/23 00:05:37;;;;;;;40.38;14.07;;;;;;;4.00;74.51;98981.75;5093890;28;20100;-78
2024/03/23 00:08:03;;;;;;;65.00;18.80;;;;;;;3.95;73.76;98978.63;5092092;28;20483;-78
2024/03/23 00:10:31;;;;;;;48.50;15.13;;;;;;;3.93;74.35;98973.53;5084452;28;20411;-78
2024/03/23 00:13:01;;;;;;;29.92;10.80;;;;;;;4.01;73.93;98975.13;5073360;28;20035;-78
2024/03/23 00:15:30;;;;;;;30.00;12.43;;;;;;;4.00;73.59;98979.03;5092298;28;20483;-78
2024/03/23 00:17:56;;;;;;;24.52;10.93;;;;;;;3.95;73.76;98973.94;5079810;28;20547;-78
2024/03/23 00:20:23;;;;;;;28.83;10.70;;;;;;;4.09;73.61;98962.28;5091875;28;20026;-78
2024/03/23 00:22:49;;;;;;;18.88;9.68;;;;;;;4.03;73.80;98964.59;5075567;28;20059;-79
2024/03/23 00:25:16;;;;;;;21.98;10.02;;;;;;;4.01;73.32;98964.19;5071799;28;20107;-79
2024/03/23 00:27:42;;;;;;;29.38;12.88;;;;;;;3.99;73.95;98963.00;5086685;28;20126;-81
2024/03/23 00:30:08;;;;;;;19.83;9.43;;;;;;;3.89;74.08;98959.09;5083148;28;20032;-80
2024/03/23 00:32:35;;;;;;;23.77;11.00;;;;;;;3.85;74.97;98955.56;5057419;28;20036;-80
2024/03/23 00:35:01;;;;;;;24.70;10.23;;;;;;;3.85;74.72;98960.25;5084207;28;20103;-80
2024/03/23 00:37:28;;;;;;;14.40;7.55;;;;;;;3.64;74.98;98969.13;5055066;28;20036;-79
2024/03/23 00:39:56;;;;;;;22.92;9.50;;;;;;;3.54;76.23;98953.47;5088468;28;20024;-81
2024/03/23 00:42:22;;;;;;;;;;;;;;;3.50;76.60;98958.13;5071961;28;20032;-79
2024/03/23 00:44:48;;;;;;;19.10;8.60;;;;;;;3.49;77.10;98953.84;5080485;28;19935;-80
2024/03/23 00:47:14;;;;;;;14.27;7.20;;;;;;;3.36;77.26;98947.94;5091427;28;20475;-78
2024/03/23 00:49:41;;;;;;;18.73;7.82;;;;;;;3.25;77.34;98949.81;5092829;28;20016;-78
2024/03/23 00:52:07;;;;;;;14.85;8.02;;;;;;;3.30;77.31;98949.44;5074564;28;21014;-78
2024/03/23 00:54:33;;;;;;;18.02;8.00;;;;;;;2.64;78.10;98885.88;5081393;28;20044;-79
2024/03/23 00:56:58;;;;;;;19.23;8.95;;;;;;;3.05;78.88;98932.13;5087240;28;20120;-79
2024/03/23 00:59:27;;;;;;;18.77;6.85;;;;;;;2.88;77.98;98886.41;5091254;28;20499;-81
2024/03/23 01:01:53;;;;;;;18.15;8.52;;;;;;;3.23;77.57;98924.84;5091210;28;20028;-80
2024/03/23 01:04:18;;;;;;;20.27;8.65;;;;;;;3.18;76.95;98920.53;5092597;28;20024;-80
2024/03/23 01:06:43;;;;;;;15.48;6.75;;;;;;;3.27;76.79;98934.59;5091421;28;20028;-79
2024/03/23 01:09:10;;;;;;;24.92;10.43;;;;;;;3.48;77.02;98950.31;5092769;28;20028;-81
2024/03/23 01:11:36;;;;;;;26.10;11.43;;;;;;;3.23;76.10;98905.72;5097504;28;20059;-79
2024/03/23 01:14:02;;;;;;;18.38;8.80;;;;;;;3.16;75.85;98875.66;5115258;28;20032;-78
2024/03/23 01:16:27;;;;;;;18.33;7.97;;;;;;;3.05;75.21;98856.50;5102579;28;20887;-81
2024/03/23 01:18:52;;;;;;;19.95;9.15;;;;;;;3.54;74.93;98917.97;5081137;28;20035;-79
2024/03/23 01:21:18;;;;;;;16.33;7.53;;;;;;;3.77;74.78;98956.69;5087038;28;20025;-80
2024/03/23 01:23:43;;;;;;;21.70;8.77;;;;;;;3.71;74.62;98941.06;5073004;28;20040;-78
2024/03/23 01:26:09;;;;;;;23.13;11.18;;;;;;;3.81;73.58;98946.53;5072655;28;20063;-79
2024/03/23 01:28:35;;;;;;;27.00;10.68;;;;;;;3.82;73.61;98948.13;5091199;28;20024;-80
2024/03/23 01:31:00;;;;;;;19.33;8.68;;;;;;;3.24;73.10;98853.47;5090630;28;20031;-79
2024/03/23 01:33:25;;;;;;;19.75;8.45;;;;;;;3.82;72.60;98931.72;5091082;28;20059;-80
2024/03/23 01:35:51;;;;;;;28.05;10.00;;;;;;;3.92;72.83;98946.56;5088777;28;20084;-84
2024/03/23 01:38:16;;;;;;;30.63;12.57;;;;;;;3.53;73.04;98892.59;5079626;28;20061;-81
2024/03/23 01:40:42;;;;;;;27.35;10.15;;;;;;;3.64;72.70;98915.25;5090295;28;20040;-81
2024/03/23 01:43:08;;;;;;;27.58;9.20;;;;;;;3.35;73.68;98858.97;5090607;28;20028;-79
2024/03/23 01:45:34;;;;;;;14.10;6.75;;;;;;;2.90;73.71;98821.31;5091790;28;20565;-79
2024/03/23 01:48:00;;;;;;;11.20;6.88;;;;;;;3.71;72.85;98919.97;5091789;28;20527;-80
2024/03/23 01:50:26;;;;;;;16.77;6.47;;;;;;;3.29;72.64;98849.59;5090608;28;20052;-80
2024/03/23 01:52:52;;;;;;;13.35;6.97;;;;;;;3.71;71.71;98900.84;5083062;28;20028;-81
2024/03/23 01:55:18;;;;;;;13.73;6.95;;;;;;;3.71;71.95;98909.03;5086053;28;20127;-79
2024/03/23 01:57:43;;;;;;;14.38;7.10;;;;;;;3.83;72.80;98946.97;5090867;28;20632;-79
2024/03/23 02:00:12;;;;;;;14.15;7.15;;;;;;;3.40;73.22;98872.25;5090874;28;20411;-80
2024/03/23 02:02:43;;;;;;;13.38;7.60;;;;;;;3.04;72.90;98816.72;5090773;28;20057;-79
2024/03/23 02:05:09;;;;;;;18.00;7.97;;;;;;;3.25;72.94;98865.94;5090877;28;20080;-82
2024/03/23 02:07:35;;;;;;;15.13;7.63;;;;;;;3.60;72.56;98924.63;5092985;28;20020;-80
2024/03/23 02:10:01;;;;;;;23.13;9.27;;;;;;;3.61;73.74;98937.13;5094654;28;20498;-80
2024/03/23 02:12:27;;;;;;;39.72;13.50;;;;;;;3.63;73.80;98951.16;5094788;28;20036;-81
2024/03/23 02:14:52;;;;;;;36.97;13.90;;;;;;;3.20;74.54;98901.00;5094849;28;20051;-79
2024/03/23 02:17:17;;;;;;;25.42;10.15;;;;;;;3.34;74.16;98944.00;5094435;28;20032;-81
2024/03/23 02:19:43;;;;;;;25.15;9.43;;;;;;;3.00;74.55;98899.75;5077472;28;20024;-80
2024/03/23 02:22:10;;;;;;;15.88;7.68;;;;;;;3.04;75.22;98928.63;5074072;28;20058;-81
2024/03/23 02:24:37;;;;;;;20.47;8.73;;;;;;;2.69;75.71;98876.56;5073819;28;20028;-79
2024/03/23 02:27:02;;;;;;;20.85;9.05;;;;;;;2.91;76.31;98911.00;5085378;28;20280;-79
2024/03/23 02:29:28;;;;;;;16.60;7.03;;;;;;;2.76;75.88;98871.94;5090930;28;20477;-81
2024/03/23 02:31:53;;;;;;;12.60;6.82;;;;;;;3.12;75.46;98910.34;5074036;28;20146;-81
2024/03/23 02:34:19;;;;;;;13.98;6.97;;;;;;;3.27;74.42;98915.50;5090804;28;20026;-80
2024/03/23 02:36:44;;;;;;;13.38;6.82;;;;;;;3.36;74.78;98922.56;5094078;28;20415;-79
2024/03/23 02:39:09;;;;;;;13.00;5.97;;;;;;;3.26;74.48;98894.81;5079802;28;20023;-80
2024/03/23 02:41:35;;;;;;;9.93;5.18;;;;;;;3.63;73.66;98945.69;5095005;28;20036;-80
2024/03/23 02:44:00;;;;;;;10.52;6.07;;;;;;;3.50;72.03;98903.50;5093410;28;20480;-79
2024/03/23 02:46:26;;;;;;;11.80;6.18;;;;;;;3.64;72.00;98928.94;5093666;28;20028;-80
2024/03/23 02:48:51;;;;;;;11.35;5.65;;;;;;;3.60;72.27;98925.41;5093865;28;20024;-80
2024/03/23 02:51:16;;;;;;;10.13;5.88;;;;;;;3.20;71.73;98844.47;5095162;28;20035;-79
2024/03/23 02:53:42;;;;;;;12.43;5.53;;;;;;;3.58;71.51;98902.34;5093214;28;20027;-81
2024/03/23 02:56:08;;;;;;;7.85;5.05;;;;;;;3.63;71.27;98893.78;5093885;28;20016;-80
2024/03/23 02:58:33;;;;;;;13.23;6.22;;;;;;;3.51;70.71;98872.28;5093673;28;20028;-78
2024/03/23 03:00:59;;;;;;;9.70;5.32;;;;;;;3.53;70.38;98881.66;5093696;28;20105;-81
2024/03/23 03:03:24;;;;;;;11.35;5.72;;;;;;;3.76;71.20;98922.34;5091498;28;20614;-79
2024/03/23 03:05:55;;;;;;;13.63;5.70;;;;;;;2.72;71.60;98767.44;5073552;28;20033;-79
2024/03/23 03:08:21;;;;;;;9.93;5.70;;;;;;;3.66;71.47;98909.44;5076179;28;20036;-81
2024/03/23 03:10:46;;;;;;;12.75;6.30;;;;;;;3.57;71.88;98911.72;5093817;28;20101;-79
2024/03/23 03:13:11;;;;;;;18.88;8.23;;;;;;;3.50;72.28;98908.94;5093591;28;20118;-79
2024/03/23 03:15:37;;;;;;;14.25;7.55;;;;;;;3.52;72.89;98942.13;5094726;28;20488;-80
2024/03/23 03:18:03;;;;;;;11.82;6.45;;;;;;;3.22;73.21;98912.34;5092788;28;20016;-79
2024/03/23 03:20:28;;;;;;;10.60;5.95;;;;;;;3.35;73.97;98931.91;5084743;28;20057;-80
2024/03/23 03:22:53;;;;;;;12.18;5.93;;;;;;;3.05;73.90;98900.16;5075127;28;20033;-80
2024/03/23 03:25:19;;;;;;;10.57;5.63;;;;;;;2.97;74.45;98882.19;5093418;28;20020;-78
2024/03/23 03:27:44;;;;;;;9.48;5.47;;;;;;;3.09;73.96;98917.34;5093525;28;20027;-79
2024/03/23 03:30:10;;;;;;;12.02;5.68;;;;;;;3.06;74.58;98912.66;5093167;28;20028;-81
2024/03/23 03:32:35;;;;;;;17.98;7.65;;;;;;;3.16;73.75;98927.53;5093204;28;20570;-79
2024/03/23 03:35:01;;;;;;;14.38;5.75;;;;;;;2.94;73.90;98910.25;5093041;28;20140;-80
2024/03/23 03:37:26;;;;;;;16.52;7.45;;;;;;;2.80;74.53;98910.13;5091219;28;20032;-79
2024/03/23 03:39:52;;;;;;;14.68;7.75;;;;;;;2.57;75.80;98891.28;5073105;28;20035;-79
2024/03/23 03:42:17;;;;;;;12.27;7.05;;;;;;;2.16;76.23;98832.53;5074319;28;20032;-80
2024/03/23 03:44:42;;;;;;;14.00;7.65;;;;;;;2.72;76.80;98911.25;5085156;28;20034;-80
2024/03/23 03:47:08;;;;;;;13.38;6.00;;;;;;;2.74;76.93;98895.28;5087644;28;20031;-80
2024/03/23 03:49:33;;;;;;;13.45;6.28;;;;;;;2.93;76.26;98911.41;5094725;28;20457;-79
2024/03/23 03:52:01;;;;;;;11.25;6.15;;;;;;;2.99;75.58;98917.28;5094094;28;20017;-80
2024/03/23 03:54:26;;;;;;;13.52;5.88;;;;;;;2.94;74.81;98898.53;5096191;28;20127;-79
2024/03/23 03:56:51;;;;;;;9.00;5.43;;;;;;;2.97;74.51;98892.31;5112279;28;20024;-79
2024/03/23 03:59:17;;;;;;;10.23;5.97;;;;;;;2.60;74.34;98835.97;5105015;28;20062;-79
2024/03/23 04:01:42;;;;;;;19.25;7.97;;;;;;;3.18;74.83;98925.19;5092489;28;20024;-79
2024/03/23 04:04:08;;;;;;;18.35;7.93;;;;;;;3.09;75.17;98922.81;5085047;28;20111;-79
2024/03/23 04:06:33;;;;;;;14.48;7.50;;;;;;;2.93;75.44;98919.59;5071457;28;20063;-80
2024/03/23 04:08:59;;;;;;;16.27;7.82;;;;;;;2.86;75.34;98908.63;5081044;28;20545;-79
2024/03/23 04:11:24;;;;;;;17.67;7.63;;;;;;;2.91;75.57;98913.72;5077550;28;20021;-79
2024/03/23 04:13:50;;;;;;;14.18;7.53;;;;;;;2.93;75.64;98935.97;5081321;28;20480;-79
2024/03/23 04:16:27;;;;;;;12.20;5.65;;;;;;;2.96;76.09;98942.59;5091325;28;20093;-80
2024/03/23 04:18:52;;;;;;;18.80;6.97;;;;;;;2.60;76.39;98901.41;5072101;28;20033;-79
2024/03/23 04:21:18;;;;;;;14.60;6.70;;;;;;;2.71;76.31;98920.59;5087628;28;20035;-80
2024/03/23 04:23:43;;;;;;;14.07;7.00;;;;;;;2.85;76.50;98950.72;5092287;28;20051;-79
2024/03/23 04:26:09;;;;;;;14.27;5.63;;;;;;;2.65;75.05;98917.41;5089485;28;20016;-79
2024/03/23 04:28:34;;;;;;;10.80;5.20;;;;;;;2.71;73.42;98953.34;5080864;28;20393;-79
2024/03/23 04:31:03;;;;;;;10.45;5.03;;;;;;;2.22;74.11;98897.22;5088864;28;20031;-81
2024/03/23 04:33:29;;;;;;;13.45;6.65;;;;;;;2.24;75.81;98937.72;5080952;28;20032;-81
2024/03/23 04:35:54;;;;;;;18.77;7.82;;;;;;;1.98;78.20;98900.50;5078126;28;20503;-81
2024/03/23 04:38:20;;;;;;;14.15;6.00;;;;;;;2.34;79.59;98942.50;5093377;28;20031;-80
2024/03/23 04:40:54;;;;;;;14.95;6.95;;;;;;;2.39;79.57;98939.44;5075881;28;20024;-80
2024/03/23 04:43:19;;;;;;;18.30;8.50;;;;;;;2.59;78.76;98948.19;5073151;28;20500;-78
2024/03/23 04:45:44;;;;;;;14.25;7.25;;;;;;;2.39;78.55;98903.97;5074595;28;20024;-79
2024/03/23 04:48:10;;;;;;;14.57;7.05;;;;;;;2.76;77.40;98942.88;5091424;28;20119;-79
2024/03/23 04:50:35;;;;;;;12.30;6.38;;;;;;;2.41;76.56;98886.06;5079218;28;20507;-81
2024/03/23 04:53:01;;;;;;;11.52;6.30;;;;;;;2.69;76.17;98887.47;5082181;28;20035;-79
2024/03/23 04:55:26;;;;;;;10.73;5.57;;;;;;;2.93;74.90;98889.56;5087575;28;20048;-81
2024/03/23 04:57:51;;;;;;;10.40;5.50;;;;;;;3.27;73.07;98863.63;5091474;28;20027;-80
2024/03/23 05:00:17;;;;;;;12.93;5.80;;;;;;;4.08;69.07;98863.06;5091400;28;20032;-80
2024/03/23 05:02:44;;;;;;;10.52;6.03;;;;;;;4.99;65.98;98936.53;5083475;28;20070;-81
2024/03/23 05:05:09;;;;;;;11.02;5.82;;;;;;;5.56;63.60;98937.94;5087711;28;20036;-80
2024/03/23 05:07:35;;;;;;;7.75;4.63;;;;;;;5.47;62.26;98907.47;5091587;28;20451;-81
2024/03/23 05:10:00;;;;;;;8.82;4.60;;;;;;;5.96;60.63;98933.91;5092328;28;20028;-81
2024/03/23 05:12:26;;;;;;;12.60;5.18;;;;;;;5.80;61.56;98943.72;5091492;28;20103;-80
2024/03/23 05:14:52;;;;;;;7.05;5.05;;;;;;;5.99;61.21;98913.13;5091068;28;20035;-80
2024/03/23 05:17:18;;;;;;;7.78;5.03;;;;;;;6.62;60.10;98925.63;5090998;28;20063;-79
2024/03/23 05:19:44;;;;;;;8.30;4.60;;;;;;;7.31;57.43;98924.59;5074717;28;20463;-80
2024/03/23 05:22:09;;;;;;;8.75;4.53;;;;;;;8.00;55.58;98921.41;5080671;28;20487;-81
2024/03/23 05:24:35;;;;;;;9.43;4.82;;;;;;;8.36;53.76;98905.19;5090892;28;20024;-79
2024/03/23 05:27:00;;;;;;;;;;;;;;;9.43;51.02;98958.50;5091169;28;20057;-80
2024/03/23 05:29:25;;;;;;;;;;;;;;;10.01;48.34;98945.91;5090899;28;19949;-80
2024/03/23 05:31:52;;;;;;;;;;;;;;;10.58;47.33;98954.53;5091100;28;20437;-80
2024/03/23 05:34:19;;;;;;;;;;;;;;;11.02;46.72;98949.53;5092247;28;19920;-81
2024/03/23 05:36:44;;;;;;;;;;;;;;;12.14;44.25;98946.88;5091074;28;19916;-80
2024/03/23 05:39:13;;;;;;;;;;;;;;;12.89;42.60;98956.44;5077577;28;20023;-82
2024/03/23 05:41:40;;;;;;;;;;;;;;;13.35;41.16;98947.38;5090669;28;19912;-81
2024/03/23 05:44:05;;;;;;;;;;;;;;;14.00;39.78;98945.84;5091213;28;19916;-82
2024/03/23 05:46:31;;;;;;;;;;;;;;;14.36;38.90;98951.59;5090979;28;20006;-80
2024/03/23 05:49:01;;;;;;;;;;;;;;;14.59;38.42;98940.00;5089063;28;19916;-81
2024/03/23 05:51:26;;;;;;;;;;;;;;;14.06;39.91;98946.81;5070933;28;19977;-81
2024/03/23 05:53:51;;;;;;;;;;;;;;;14.69;38.78;98940.03;5070918;28;20384;-81
2024/03/23 05:56:19;;;;;;;;;;;;;;;14.93;38.41;98941.81;5081731;28;19945;-81
2024/03/23 05:58:44;;;;;;;;;;;;;;;15.61;37.38;98939.00;5090770;28;19941;-81
2024/03/23 06:01:10;;;;;;;;;;;;;;;15.87;36.39;98940.97;5090873;28;19920;-79
2024/03/23 06:03:35;;;;;;;;;;;;;;;15.86;36.28;98941.44;5073151;28;19966;-80
2024/03/23 06:06:00;;;;;;;;;;;;;;;15.74;36.14;98934.00;5071108;28;19915;-81
2024/03/23 06:08:26;;;;;;;;;;;;;;;15.81;35.96;98936.47;5089026;28;20142;-80
2024/03/23 06:10:51;;;;;;;;;;;;;;;16.13;36.15;98933.03;5090913;28;19973;-81
2024/03/23 06:13:17;;;;;;;;;;;;;;;16.89;34.51;98934.59;5091120;28;19920;-80
2024/03/23 06:15:43;;;;;;;;;;;;;;;16.88;35.58;98935.84;5089185;28;19916;-79
2024/03/23 06:18:08;;;;;;;;;;;;;;;16.80;35.17;98931.88;5079730;28;19918;-79
2024/03/23 06:20:34;;;;;;;;;;;;;;;17.04;34.90;98932.66;5083159;28;19961;-79
2024/03/23 06:23:00;;;;;;;;;;;;;;;17.30;34.13;98932.94;5090390;28;19912;-79
2024/03/23 06:25:25;;;;;;;;;;;;;;;17.59;33.40;98931.50;5090563;28;19915;-80
2024/03/23 06:27:50;;;;;;;;;;;;;;;17.77;33.80;98939.75;5091122;28;19912;-82
2024/03/23 06:30:16;;;;;;;;;;;;;;;18.09;32.18;98940.81;5084094;28;19916;-79
2024/03/23 06:32:41;;;;;;;;;;;;;;;18.11;32.63;98938.34;5114697;28;19912;-79
2024/03/23 06:35:09;;;;;;;;;;;;;;;18.08;32.91;98947.69;5094485;28;20432;-78
2024/03/23 06:37:35;;;;;;;;;;;;;;;18.48;31.27;98938.69;5085582;28;19912;-78
2024/03/23 06:40:00;;;;;;;;;;;;;;;19.25;30.33;98930.69;5091856;28;19912;-79
2024/03/23 06:42:26;;;;;;;;;;;;;;;19.78;30.19;98930.31;5090131;28;19922;-81
2024/03/23 06:44:51;;;;;;;;;;;;;;;20.39;29.11;98923.78;5090007;28;20007;-80
2024/03/23 06:47:16;;;;;;;;;;;;;;;21.01;27.98;98925.75;5090816;28;19920;-78
2024/03/23 06:49:41;;;;;;;;;;;;;;;21.26;27.69;98921.31;5070103;28;19919;-82
2024/03/23 06:52:07;;;;;;;;;;;;;;;21.62;27.70;98926.06;5083266;28;19923;-78
2024/03/23 06:54:32;;;;;;;;;;;;;;;20.99;27.66;98929.06;5073650;28;19920;-81
2024/03/23 06:56:57;;;;;;;;;;;;;;;21.41;27.28;98921.88;5086895;28;20344;-83
2024/03/23 06:59:23;;;;;;;;;;;;;;;22.19;26.10;98922.09;5074288;28;19978;-82
2024/03/23 07:01:48;;;;;;;;;;;;;;;22.67;25.18;98919.78;5088398;28;19912;-79
2024/03/23 07:04:13;;;;;;;;;;;;;;;22.54;25.21;98924.41;5093829;28;19914;-82
2024/03/23 07:06:45;;;;;;;;;;;;;;;23.09;24.66;98918.69;5082104;28;19916;-81
2024/03/23 07:09:10;;;;;;;;;;;;;;;22.92;24.80;98915.16;5082273;28;20007;-79
2024/03/23 07:11:36;;;;;;;;;;;;;;;23.47;24.22;98910.66;5094065;28;19978;-81
2024/03/23 07:14:02;;;;;;;;;;;;;;;20.70;25.97;98912.53;5087451;28;19908;-79
2024/03/23 07:16:27;;;;;;;;;;;;;;;22.02;24.74;98907.22;5085545;28;20434;-85
2024/03/23 07:18:53;;;;;;;;;;;;;;;22.73;23.71;98912.13;5093453;28;20445;-81
2024/03/23 07:21:18;;;;;;;;;;;;;;;22.82;23.19;98910.31;5093177;28;20459;-81
2024/03/23 07:23:46;;;;;;;;;;;;;;;22.79;23.89;98911.34;5091990;28;20333;-81
2024/03/23 07:26:12;;;;;;;;;;;;;;;21.58;24.66;98911.44;5074866;28;19917;-80
2024/03/23 07:28:38;;;;;;;;;;;;;;;20.81;25.53;98901.38;5081745;28;20437;-81
2024/03/23 07:31:03;;;;;;;;;;;;;;;19.72;26.56;98897.88;5074728;28;19924;-80
2024/03/23 07:33:29;;;;;;;;;;;;;;;17.96;28.67;98907.59;5071587;28;19919;-81
2024/03/23 07:35:54;;;;;;;;;;;;;;;16.60;34.16;98893.38;5088861;28;20422;-81
2024/03/23 07:38:19;;;;;;;;;;;;;;;15.45;36.80;98890.69;5093888;28;20402;-80
2024/03/23 07:40:45;;;;;;;;;;;;;;;15.35;36.68;98883.56;5092622;28;19912;-81
2024/03/23 07:43:10;;;;;;;7.53;4.80;;;;;;;15.00;36.81;98846.94;5091647;28;20913;-82
2024/03/23 07:45:37;;;;;;;6.20;4.07;;;;;;;14.99;37.02;98875.97;5092220;28;20032;-83
2024/03/23 07:48:03;;;;;;;6.77;3.87;;;;;;;14.40;38.84;98862.56;5092482;28;20154;-81
2024/03/23 07:50:28;;;;;;;5.85;3.72;;;;;;;14.50;35.43;98839.09;5092243;28;20115;-81
2024/03/23 07:52:54;;;;;;;6.10;3.78;;;;;;;14.15;39.57;98827.38;5084292;28;20061;-81
2024/03/23 07:55:19;;;;;;;7.60;3.70;;;;;;;14.23;38.42;98823.06;5087488;28;20052;-78
2024/03/23 07:57:44;;;;;;;6.20;4.20;;;;;;;14.42;39.09;98858.06;5083519;28;20047;-79
2024/03/23 08:00:10;;;;;;;5.55;3.35;;;;;;;14.63;38.10;98856.44;5087115;28;20472;-82
2024/03/23 08:02:36;;;;;;;6.57;3.92;;;;;;;14.73;38.83;98851.66;5072066;28;20028;-80
2024/03/23 08:05:01;;;;;;;6.32;4.38;;;;;;;14.12;36.90;98814.41;5086953;28;20031;-80
2024/03/23 08:07:27;;;;;;;7.40;4.90;;;;;;;13.62;39.71;98821.13;5093419;28;20035;-81
2024/03/23 08:09:52;;;;;;;8.00;4.22;;;;;;;14.14;41.00;98803.59;5076797;28;20028;-80
2024/03/23 08:12:17;;;;;;;7.28;4.90;;;;;;;13.92;38.06;98831.47;5080559;28;20035;-80
2024/03/23 08:14:43;;;;;;;5.93;3.75;;;;;;;14.27;36.41;98848.75;5091739;28;20033;-80
2024/03/23 08:17:08;;;;;;;12.25;5.20;;;;;;;14.24;39.25;98802.41;5083527;28;20028;-81
2024/03/23 08:19:34;;;;;;;13.10;6.47;;;;;;;14.06;38.10;98822.56;5087689;28;20458;-81
2024/03/23 08:21:59;;;;;;;12.80;6.40;;;;;;;14.21;41.12;98797.78;5091920;28;20027;-80
2024/03/23 08:24:25;;;;;;;11.40;5.65;;;;;;;13.65;37.24;98793.22;5091539;28;20024;-82
2024/03/23 08:26:50;;;;;;;11.10;5.80;;;;;;;13.62;39.88;98751.72;5091703;28;20039;-81
2024/03/23 08:29:16;;;;;;;9.35;5.40;;;;;;;14.06;39.03;98778.09;5092550;28;20468;-80
2024/03/23 08:31:42;;;;;;;12.85;5.20;;;;;;;13.86;40.65;98783.28;5093203;28;20057;-81
2024/03/23 08:34:08;;;;;;;11.70;4.63;;;;;;;14.60;42.20;98819.19;5092619;28;20141;-83
2024/03/23 08:36:33;;;;;;;11.60;5.47;;;;;;;14.83;39.63;98826.19;5091418;28;20118;-82
2024/03/23 08:38:58;;;;;;;9.07;5.18;;;;;;;14.46;38.33;98800.34;5077975;28;20047;-81
2024/03/23 08:41:24;;;;;;;8.98;5.53;;;;;;;14.21;37.10;98797.78;5072330;28;20099;-81
2024/03/23 08:43:49;;;;;;;6.32;5.13;;;;;;;14.16;38.62;98788.03;5086160;28;20386;-81
2024/03/23 08:46:16;;;;;;;11.70;5.03;;;;;;;14.43;38.19;98829.03;5091496;28;20028;-81
2024/03/23 08:48:43;;;;;;;8.73;4.85;;;;;;;14.13;38.38;98786.16;5091195;28;20027;-78
2024/03/23 08:51:11;;;;;;;10.85;5.35;;;;;;;14.38;40.69;98812.19;5092503;28;20396;-80
2024/03/23 08:53:37;;;;;;;6.47;4.80;;;;;;;14.50;38.03;98808.53;5088730;28;20035;-80
2024/03/23 08:56:03;;;;;;;9.32;4.65;;;;;;;14.38;38.18;98806.63;5081174;28;20028;-82
2024/03/23 08:58:31;;;;;;;9.13;4.18;;;;;;;14.64;38.04;98808.72;5092531;28;20054;-81
2024/03/23 09:01:07;;;;;;;5.78;4.03;;;;;;;13.90;38.14;98728.38;5091384;28;20093;-82
2024/03/23 09:03:33;;;;;;;5.90;4.43;;;;;;;14.56;37.93;98790.78;5092481;28;20024;-80
2024/03/23 09:06:00;;;;;;;5.57;4.18;;;;;;;14.78;39.34;98793.41;5098409;28;20061;-79
2024/03/23 09:08:26;;;;;;;8.57;4.57;;;;;;;14.92;38.09;98776.13;5094450;28;20032;-80
2024/03/23 09:10:52;;;;;;;8.80;5.05;;;;;;;15.13;39.89;98745.81;5108309;28;20031;-80
2024/03/23 09:13:17;;;;;;;8.20;4.70;;;;;;;15.18;38.64;98784.94;5090653;28;20049;-81
2024/03/23 09:15:48;;;;;;;10.68;4.95;;;;;;;15.46;37.58;98782.84;5080344;28;20111;-82
2024/03/23 09:18:13;;;;;;;8.65;4.57;;;;;;;14.93;38.15;98735.16;5090112;28;20519;-81
2024/03/23 09:20:39;;;;;;;11.30;4.78;;;;;;;15.24;40.66;98755.22;5078997;28;20028;-80
2024/03/23 09:23:04;;;;;;;9.60;5.40;;;;;;;15.33;37.28;98766.34;5070693;28;20514;-80
2024/03/23 09:25:30;;;;;;;8.23;4.40;;;;;;;14.68;38.07;98707.66;5082871;28;20032;-82
2024/03/23 09:27:56;;;;;;;7.53;4.43;;;;;;;15.31;39.00;98749.31;5087702;28;20094;-82
2024/03/23 09:30:23;;;;;;;8.00;4.43;;;;;;;15.28;39.39;98710.50;5081019;28;20488;-81
2024/03/23 09:32:48;;;;;;;11.45;4.45;;;;;;;15.61;37.19;98739.19;5085861;28;20476;-79
2024/03/23 09:35:14;;;;;;;7.90;4.60;;;;;;;15.36;37.87;98723.66;5071625;28;20032;-80
2024/03/23 09:37:42;;;;;;;8.15;4.78;;;;;;;15.43;38.93;98692.66;5075635;28;20024;-81
2024/03/23 09:40:11;;;;;;;8.13;5.47;;;;;;;15.48;40.31;98686.50;5090167;28;20094;-81
2024/03/23 09:42:37;;;;;;;7.72;4.30;;;;;;;15.75;39.33;98707.13;5085164;28;20034;-80
2024/03/23 09:45:09;;;;;;;10.60;5.43;;;;;;;15.93;38.78;98731.34;5081911;28;20111;-80
2024/03/23 09:47:34;;;;;;;7.10;4.43;;;;;;;15.58;37.51;98712.31;5084590;28;20064;-81
2024/03/23 09:50:00;;;;;;;7.32;3.88;;;;;;;15.75;37.58;98721.06;5070420;28;20067;-82
2024/03/23 09:52:26;;;;;;;8.45;4.60;;;;;;;15.97;39.42;98716.00;5075370;28;20035;-80
2024/03/23 09:54:51;;;;;;;7.93;4.50;;;;;;;15.42;39.52;98637.47;5089884;28;20491;-80
2024/03/23 09:57:17;;;;;;;5.80;4.15;;;;;;;15.76;37.47;98700.31;5089938;28;20032;-80
2024/03/23 09:59:43;;;;;;;6.47;4.32;;;;;;;15.26;37.33;98624.69;5089918;28;20012;-81
2024/03/23 10:02:10;;;;;;;7.30;4.43;;;;;;;15.70;35.88;98702.19;5090033;28;20089;-79
2024/03/23 10:04:36;;;;;;;5.60;3.33;;;;;;;15.51;35.73;98678.41;5077411;28;20120;-79
2024/03/23 10:07:12;;;;;;;14.13;3.92;;;;;;;15.70;38.17;98691.06;5083329;28;20107;-81
2024/03/23 10:09:38;;;;;;;5.55;3.35;;;;;;;15.65;37.56;98684.13;5070400;28;20032;-81
2024/03/23 10:12:16;;;;;;;5.38;3.30;;;;;;;15.70;36.58;98691.84;5090032;28;20030;-83
2024/03/23 10:14:42;;;;;;;10.70;5.95;;;;;;;15.76;34.70;98694.75;5089863;28;20078;-80
2024/03/23 10:17:25;;;;;;;4.75;3.42;;;;;;;15.76;33.61;98683.59;5089705;28;20165;-81
2024/03/23 10:19:56;;;;;;;7.82;4.03;;;;;;;15.70;35.14;98671.56;5090078;28;20047;-83
2024/03/23 10:22:26;;;;;;;6.97;3.63;;;;;;;15.82;34.50;98659.44;5089671;28;20028;-77
2024/03/23 10:24:51;;;;;;;6.57;3.95;;;;;;;15.84;35.60;98656.94;5075216;28;20469;-83
2024/03/23 10:27:19;;;;;;;6.22;3.85;;;;;;;15.88;34.27;98638.03;5089691;28;20093;-80
2024/03/23 10:29:45;;;;;;;10.13;4.10;;;;;;;16.21;35.75;98663.06;5083593;28;20035;-82
2024/03/23 10:32:12;;;;;;;8.32;3.50;;;;;;;16.13;36.97;98640.34;5094975;28;20113;-79
2024/03/23 10:34:39;;;;;;;8.10;3.95;;;;;;;16.36;35.46;98658.28;5086243;28;20032;-84
2024/03/23 10:37:05;;;;;;;5.18;3.72;;;;;;;15.86;34.63;98570.84;5081620;28;20474;-81
2024/03/23 10:39:34;;;;;;;8.10;4.22;;;;;;;15.92;35.69;98576.53;5079752;28;20028;-82
2024/03/23 10:42:02;;;;;;;5.38;3.67;;;;;;;16.23;34.33;98622.28;5093775;28;20031;-82
2024/03/23 10:44:29;;;;;;;5.28;3.40;;;;;;;16.09;35.12;98633.41;5080361;28;20131;-84
2024/03/23 10:46:59;;;;;;;5.25;3.88;;;;;;;16.33;35.10;98630.59;5080960;28;20036;-82
2024/03/23 10:49:26;;;;;;;7.72;3.80;;;;;;;16.44;35.54;98616.88;5081115;28;20028;-81
2024/03/23 10:51:53;;;;;;;9.37;4.30;;;;;;;16.42;33.97;98622.16;5093984;28;20031;-81
2024/03/23 10:54:19;;;;;;;7.05;4.10;;;;;;;16.41;34.89;98612.22;5093657;28;20048;-80
2024/03/23 10:56:48;;;;;;;9.48;3.80;;;;;;;16.45;35.72;98598.91;5092955;28;20024;-81
2024/03/23 10:59:14;;;;;;;8.55;3.28;;;;;;;16.46;33.80;98606.75;5073506;28;20035;-81
2024/03/23 11:01:59;;;;;;;7.13;3.80;;;;;;;16.43;33.83;98584.66;5088852;28;20082;-82
2024/03/23 11:04:36;;;;;;;6.95;3.50;;;;;;;16.68;34.14;98604.44;5094042;28;20115;-81
2024/03/23 11:07:20;;;;;;;10.35;4.72;;;;;;;16.77;33.15;98586.81;5074498;28;20024;-83
2024/03/23 11:09:45;;;;;;;9.68;4.95;;;;;;;16.72;33.47;98565.16;5073594;28;20031;-84
2024/03/23 11:12:31;;;;;;;5.25;3.78;;;;;;;16.73;33.69;98563.16;5073307;28;20115;-83
2024/03/23 11:14:56;;;;;;;7.82;4.10;;;;;;;16.82;33.85;98566.59;5091402;28;20119;-80
2024/03/23 11:17:23;;;;;;;10.57;4.47;;;;;;;16.72;34.20;98528.91;5093569;28;20171;-82
2024/03/23 11:19:58;;;;;;;6.35;4.05;;;;;;;16.49;33.42;98505.41;5093105;28;20123;-79
2024/03/23 11:22:44;;;;;;;16.35;4.55;;;;;;;16.91;34.31;98551.78;5093545;28;20032;-79
2024/03/23 11:25:25;;;;;;;7.85;3.97;;;;;;;17.03;32.85;98554.28;5085542;28;20074;-79
2024/03/23 11:28:09;;;;;;;8.73;3.63;;;;;;;16.37;32.72;98470.22;5089748;28;20097;-83
2024/03/23 11:30:34;;;;;;;7.47;5.05;;;;;;;16.59;32.91;98504.09;5059666;28;20056;-81
2024/03/23 11:33:02;;;;;;;9.90;3.95;;;;;;;16.76;31.95;98523.88;5084007;28;20077;-81
2024/03/23 11:35:34;;;;;;;10.10;5.53;;;;;;;17.04;34.67;98533.47;5093106;28;20027;-79
2024/03/23 11:38:05;;;;;;;9.10;5.07;;;;;;;16.87;31.97;98498.19;5093294;28;20039;-81
2024/03/23 11:40:32;;;;;;;8.20;5.25;;;;;;;17.07;32.55;98504.59;5094837;28;20043;-81
2024/03/23 11:43:06;;;;;;;8.55;4.30;;;;;;;17.05;33.01;98500.75;5094831;28;20403;-81